sensor_id;sensor_type;location;lat;lon;timestamp;noise_LAeq;noise_LA_min;noise_LA_max;noise_LA01;noise_LA95
57092;Laerm;42968;52.094;4.328;2023-08-31T00:00:17;54.61;38.37;71.60;;
57092;Laerm;42968;52.094;4.328;2023-08-31T00:02:43;53.66;38.21;71.90;;
57092;Laerm;42968;52.094;4.328;2023-08-31T00:05:08;49.59;38.52;69.45;;
57092;Laerm;42968;52.094;4.328;2023-08-31T00:07:34;46.40;38.37;63.61;;
57092;Laerm;42968;52.094;4.328;2023-08-31T00:09:59;45.96;38.37;63.74;;
57092;Laerm;42968;52.094;4.328;2023-08-31T00:12:24;47.14;35.04;62.88;;
57092;Laerm;42968;52.094;4.328;2023-08-31T00:14:50;51.71;36.45;71.15;;
57092;Laerm;42968;52.094;4.328;2023-08-31T00:17:16;50.69;38.05;69.48;;
57092;Laerm;42968;52.094;4.328;2023-08-31T00:19:42;41.00;34.31;48.37;;
57092;Laerm;42968;52.094;4.328;2023-08-31T00:22:07;55.50;35.36;75.02;;
57092;Laerm;42968;52.094;4.328;2023-08-31T00:24:33;58.43;36.45;75.37;;
57092;Laerm;42968;52.094;4.328;2023-08-31T00:27:02;54.32;37.88;69.34;;
57092;Laerm;42968;52.094;4.328;2023-08-31T00:29:28;49.56;37.12;67.88;;
57092;Laerm;42968;52.094;4.328;2023-08-31T00:31:54;53.81;37.32;72.48;;
57092;Laerm;42968;52.094;4.328;2023-08-31T00:34:20;52.90;35.94;70.07;;
57092;Laerm;42968;52.094;4.328;2023-08-31T00:36:45;49.76;35.66;66.10;;
57092;Laerm;42968;52.094;4.328;2023-08-31T00:39:10;40.87;34.69;53.64;;
57092;Laerm;42968;52.094;4.328;2023-08-31T00:41:36;53.02;36.69;71.08;;
57092;Laerm;42968;52.094;4.328;2023-08-31T00:44:02;49.03;35.94;64.16;;
57092;Laerm;42968;52.094;4.328;2023-08-31T00:46:29;49.92;36.69;68.22;;
57092;Laerm;42968;52.094;4.328;2023-08-31T00:48:54;40.30;35.36;43.94;;
57092;Laerm;42968;52.094;4.328;2023-08-31T00:51:20;50.62;35.36;66.88;;
57092;Laerm;42968;52.094;4.328;2023-08-31T00:53:46;50.76;36.45;68.29;;
57092;Laerm;42968;52.094;4.328;2023-08-31T00:56:13;48.64;35.86;64.33;;
57092;Laerm;42968;52.094;4.328;2023-08-31T00:58:38;40.92;35.04;44.51;;
57092;Laerm;42968;52.094;4.328;2023-08-31T01:01:11;40.63;36.20;50.10;;
57092;Laerm;42968;52.094;4.328;2023-08-31T01:06:10;55.23;40.33;73.06;;
57092;Laerm;42968;52.094;4.328;2023-08-31T01:13:33;61.78;51.85;76.07;;
57092;Laerm;42968;52.094;4.328;2023-08-31T01:16:03;50.58;44.11;65.74;;
57092;Laerm;42968;52.094;4.328;2023-08-31T01:18:30;63.00;43.68;80.48;;
57092;Laerm;42968;52.094;4.328;2023-08-31T01:21:06;58.32;40.62;78.67;;
57092;Laerm;42968;52.094;4.328;2023-08-31T01:26:29;42.33;38.52;62.66;;
57092;Laerm;42968;52.094;4.328;2023-08-31T01:28:54;59.50;39.46;75.11;;
57092;Laerm;42968;52.094;4.328;2023-08-31T01:31:20;60.92;39.21;75.86;;
57092;Laerm;42968;52.094;4.328;2023-08-31T01:33:46;58.19;38.67;72.56;;
57092;Laerm;42968;52.094;4.328;2023-08-31T01:36:23;58.35;37.52;72.38;;
57092;Laerm;42968;52.094;4.328;2023-08-31T01:38:53;55.05;37.52;71.95;;
57092;Laerm;42968;52.094;4.328;2023-08-31T01:41:20;45.63;37.17;64.03;;
57092;Laerm;42968;52.094;4.328;2023-08-31T01:43:47;52.91;37.52;68.85;;
57092;Laerm;42968;52.094;4.328;2023-08-31T01:46:13;55.64;37.70;75.73;;
57092;Laerm;42968;52.094;4.328;2023-08-31T01:48:39;56.03;39.21;75.18;;
57092;Laerm;42968;52.094;4.328;2023-08-31T01:51:06;57.31;38.52;75.03;;
57092;Laerm;42968;52.094;4.328;2023-08-31T01:53:31;47.66;36.69;66.02;;
57092;Laerm;42968;52.094;4.328;2023-08-31T01:55:57;52.65;37.88;68.67;;
57092;Laerm;42968;52.094;4.328;2023-08-31T01:58:23;41.52;36.69;46.57;;
57092;Laerm;42968;52.094;4.328;2023-08-31T02:00:48;43.92;37.88;64.55;;
57092;Laerm;42968;52.094;4.328;2023-08-31T02:03:13;55.89;38.81;75.68;;
57092;Laerm;42968;52.094;4.328;2023-08-31T02:05:39;58.18;39.08;74.00;;
57092;Laerm;42968;52.094;4.328;2023-08-31T02:08:04;54.19;39.34;70.93;;
57092;Laerm;42968;52.094;4.328;2023-08-31T02:10:29;55.17;37.32;74.25;;
57092;Laerm;42968;52.094;4.328;2023-08-31T02:12:54;41.19;37.70;48.76;;
57092;Laerm;42968;52.094;4.328;2023-08-31T02:15:20;41.11;36.91;51.17;;
57092;Laerm;42968;52.094;4.328;2023-08-31T02:17:45;41.63;37.52;50.65;;
57092;Laerm;42968;52.094;4.328;2023-08-31T02:20:10;60.16;37.88;79.20;;
57092;Laerm;42968;52.094;4.328;2023-08-31T02:22:36;52.87;38.05;69.50;;
57092;Laerm;42968;52.094;4.328;2023-08-31T02:25:01;50.78;37.52;65.53;;
57092;Laerm;42968;52.094;4.328;2023-08-31T02:27:27;60.17;38.37;74.86;;
57092;Laerm;42968;52.094;4.328;2023-08-31T02:29:52;51.96;38.67;67.61;;
57092;Laerm;42968;52.094;4.328;2023-08-31T02:32:18;50.53;39.34;67.22;;
57092;Laerm;42968;52.094;4.328;2023-08-31T02:34:43;56.92;39.08;73.48;;
57092;Laerm;42968;52.094;4.328;2023-08-31T02:37:09;54.08;38.67;74.19;;
57092;Laerm;42968;52.094;4.328;2023-08-31T02:39:34;57.08;38.81;71.25;;
57092;Laerm;42968;52.094;4.328;2023-08-31T02:41:59;60.00;39.58;75.86;;
57092;Laerm;42968;52.094;4.328;2023-08-31T02:44:25;57.85;39.68;76.30;;
57092;Laerm;42968;52.094;4.328;2023-08-31T02:46:50;58.03;39.34;75.37;;
57092;Laerm;42968;52.094;4.328;2023-08-31T02:49:15;55.86;38.67;72.41;;
57092;Laerm;42968;52.094;4.328;2023-08-31T02:51:40;53.93;39.34;69.31;;
57092;Laerm;42968;52.094;4.328;2023-08-31T02:54:06;58.44;38.87;76.67;;
57092;Laerm;42968;52.094;4.328;2023-08-31T02:56:31;47.93;39.08;67.81;;
57092;Laerm;42968;52.094;4.328;2023-08-31T02:58:57;57.60;37.88;73.29;;
57092;Laerm;42968;52.094;4.328;2023-08-31T03:01:22;55.04;39.46;71.64;;
57092;Laerm;42968;52.094;4.328;2023-08-31T03:03:49;60.35;43.60;73.59;;
57092;Laerm;42968;52.094;4.328;2023-08-31T03:06:14;57.65;38.67;76.12;;
57092;Laerm;42968;52.094;4.328;2023-08-31T03:08:40;60.04;39.68;75.21;;
57092;Laerm;42968;52.094;4.328;2023-08-31T03:11:05;56.94;39.46;74.48;;
57092;Laerm;42968;52.094;4.328;2023-08-31T03:13:31;62.24;40.43;77.72;;
57092;Laerm;42968;52.094;4.328;2023-08-31T03:15:56;64.45;41.38;82.77;;
57092;Laerm;42968;52.094;4.328;2023-08-31T03:18:22;59.79;40.23;76.69;;
57092;Laerm;42968;52.094;4.328;2023-08-31T03:20:47;63.35;42.59;77.88;;
57092;Laerm;42968;52.094;4.328;2023-08-31T03:23:12;64.27;43.54;76.22;;
57092;Laerm;42968;52.094;4.328;2023-08-31T03:25:38;63.55;43.63;77.70;;
57092;Laerm;42968;52.094;4.328;2023-08-31T03:28:03;63.16;43.54;75.17;;
57092;Laerm;42968;52.094;4.328;2023-08-31T03:30:28;55.50;41.38;71.35;;
57092;Laerm;42968;52.094;4.328;2023-08-31T03:32:54;60.94;42.22;75.46;;
57092;Laerm;42968;52.094;4.328;2023-08-31T03:35:19;66.94;45.51;81.87;;
57092;Laerm;42968;52.094;4.328;2023-08-31T03:37:47;66.75;43.29;82.57;;
57092;Laerm;42968;52.094;4.328;2023-08-31T03:40:13;60.96;44.95;72.55;;
57092;Laerm;42968;52.094;4.328;2023-08-31T03:42:38;64.52;44.43;79.31;;
57092;Laerm;42968;52.094;4.328;2023-08-31T03:45:04;64.35;44.90;75.56;;
57092;Laerm;42968;52.094;4.328;2023-08-31T03:47:29;64.92;43.49;79.99;;
57092;Laerm;42968;52.094;4.328;2023-08-31T03:49:55;66.28;47.28;81.78;;
57092;Laerm;42968;52.094;4.328;2023-08-31T03:52:20;62.12;44.58;73.88;;
57092;Laerm;42968;52.094;4.328;2023-08-31T03:54:45;62.56;43.58;73.33;;
57092;Laerm;42968;52.094;4.328;2023-08-31T03:57:10;65.55;44.35;79.68;;
57092;Laerm;42968;52.094;4.328;2023-08-31T03:59:36;61.62;40.89;74.12;;
57092;Laerm;42968;52.094;4.328;2023-08-31T04:02:01;62.81;41.46;77.46;;
57092;Laerm;42968;52.094;4.328;2023-08-31T04:04:26;65.55;47.44;76.92;;
57092;Laerm;42968;52.094;4.328;2023-08-31T04:06:51;63.67;45.11;75.49;;
57092;Laerm;42968;52.094;4.328;2023-08-31T04:09:17;64.25;45.42;75.44;;
57092;Laerm;42968;52.094;4.328;2023-08-31T04:11:42;67.70;52.24;79.44;;
57092;Laerm;42968;52.094;4.328;2023-08-31T04:14:07;65.42;48.36;79.11;;
57092;Laerm;42968;52.094;4.328;2023-08-31T04:16:32;68.61;51.30;87.48;;
57092;Laerm;42968;52.094;4.328;2023-08-31T04:18:58;64.88;50.64;76.09;;
57092;Laerm;42968;52.094;4.328;2023-08-31T04:21:23;66.48;48.58;76.83;;
57092;Laerm;42968;52.094;4.328;2023-08-31T04:23:48;66.63;47.32;81.60;;
57092;Laerm;42968;52.094;4.328;2023-08-31T04:26:14;65.79;47.08;77.66;;
57092;Laerm;42968;52.094;4.328;2023-08-31T04:28:40;67.01;52.78;74.68;;
57092;Laerm;42968;52.094;4.328;2023-08-31T04:31:06;69.30;49.06;82.56;;
57092;Laerm;42968;52.094;4.328;2023-08-31T04:33:33;65.18;46.80;76.12;;
57092;Laerm;42968;52.094;4.328;2023-08-31T04:35:59;66.59;45.45;78.09;;
57092;Laerm;42968;52.094;4.328;2023-08-31T04:38:24;69.29;48.69;78.36;;
57092;Laerm;42968;52.094;4.328;2023-08-31T04:40:49;69.77;54.50;86.29;;
57092;Laerm;42968;52.094;4.328;2023-08-31T04:43:15;70.62;52.99;83.20;;
57092;Laerm;42968;52.094;4.328;2023-08-31T04:45:40;70.25;50.11;89.35;;
57092;Laerm;42968;52.094;4.328;2023-08-31T04:48:05;69.25;50.56;80.98;;
57092;Laerm;42968;52.094;4.328;2023-08-31T04:50:31;67.86;52.21;77.20;;
57092;Laerm;42968;52.094;4.328;2023-08-31T04:52:56;67.69;48.10;78.55;;
57092;Laerm;42968;52.094;4.328;2023-08-31T04:55:21;68.86;48.63;76.81;;
57092;Laerm;42968;52.094;4.328;2023-08-31T04:57:47;69.29;51.34;80.62;;
57092;Laerm;42968;52.094;4.328;2023-08-31T05:00:12;69.23;54.33;77.27;;
57092;Laerm;42968;52.094;4.328;2023-08-31T05:02:38;67.06;52.00;74.98;;
57092;Laerm;42968;52.094;4.328;2023-08-31T05:05:03;68.17;49.57;77.61;;
57092;Laerm;42968;52.094;4.328;2023-08-31T05:07:29;68.67;48.48;78.67;;
57092;Laerm;42968;52.094;4.328;2023-08-31T05:09:54;69.43;53.02;81.38;;
57092;Laerm;42968;52.094;4.328;2023-08-31T05:12:19;69.98;53.23;81.19;;
57092;Laerm;42968;52.094;4.328;2023-08-31T05:14:44;70.01;55.25;80.92;;
57092;Laerm;42968;52.094;4.328;2023-08-31T05:17:10;69.60;52.78;82.44;;
57092;Laerm;42968;52.094;4.328;2023-08-31T05:19:35;68.38;50.02;79.34;;
57092;Laerm;42968;52.094;4.328;2023-08-31T05:22:00;69.72;52.37;78.65;;
57092;Laerm;42968;52.094;4.328;2023-08-31T05:24:25;67.89;50.18;77.81;;
57092;Laerm;42968;52.094;4.328;2023-08-31T05:26:51;69.86;51.20;81.73;;
57092;Laerm;42968;52.094;4.328;2023-08-31T05:29:16;68.17;51.91;75.80;;
57092;Laerm;42968;52.094;4.328;2023-08-31T05:31:41;69.54;53.23;77.54;;
57092;Laerm;42968;52.094;4.328;2023-08-31T05:34:09;69.91;51.76;80.87;;
57092;Laerm;42968;52.094;4.328;2023-08-31T05:36:34;70.32;51.64;80.47;;
57092;Laerm;42968;52.094;4.328;2023-08-31T05:38:59;72.02;55.56;80.13;;
57092;Laerm;42968;52.094;4.328;2023-08-31T05:41:24;69.30;49.00;78.71;;
57092;Laerm;42968;52.094;4.328;2023-08-31T05:43:50;69.66;54.86;81.99;;
57092;Laerm;42968;52.094;4.328;2023-08-31T05:46:15;70.26;51.33;77.95;;
57092;Laerm;42968;52.094;4.328;2023-08-31T05:48:40;70.55;52.79;80.81;;
57092;Laerm;42968;52.094;4.328;2023-08-31T05:51:06;71.02;50.71;83.31;;
57092;Laerm;42968;52.094;4.328;2023-08-31T05:53:31;69.68;59.36;82.75;;
57092;Laerm;42968;52.094;4.328;2023-08-31T05:55:57;69.98;58.78;77.09;;
57092;Laerm;42968;52.094;4.328;2023-08-31T05:58:29;69.45;49.40;83.65;;
57092;Laerm;42968;52.094;4.328;2023-08-31T06:00:55;69.60;52.20;77.96;;
57092;Laerm;42968;52.094;4.328;2023-08-31T06:03:20;71.84;51.35;81.57;;
57092;Laerm;42968;52.094;4.328;2023-08-31T06:05:45;70.71;51.68;81.28;;
57092;Laerm;42968;52.094;4.328;2023-08-31T06:08:10;69.35;56.41;79.07;;
57092;Laerm;42968;52.094;4.328;2023-08-31T06:10:36;70.44;56.99;78.82;;
57092;Laerm;42968;52.094;4.328;2023-08-31T06:13:01;71.93;54.91;96.73;;
57092;Laerm;42968;52.094;4.328;2023-08-31T06:15:26;70.57;49.81;77.69;;
57092;Laerm;42968;52.094;4.328;2023-08-31T06:17:51;69.40;52.91;78.13;;
57092;Laerm;42968;52.094;4.328;2023-08-31T06:20:17;68.77;55.58;76.65;;
57092;Laerm;42968;52.094;4.328;2023-08-31T06:22:42;72.39;54.54;81.11;;
57092;Laerm;42968;52.094;4.328;2023-08-31T06:25:07;69.11;56.24;82.41;;
57092;Laerm;42968;52.094;4.328;2023-08-31T06:27:33;71.43;55.87;80.41;;
57092;Laerm;42968;52.094;4.328;2023-08-31T06:29:58;72.06;53.11;81.97;;
57092;Laerm;42968;52.094;4.328;2023-08-31T06:32:23;70.28;56.10;78.56;;
57092;Laerm;42968;52.094;4.328;2023-08-31T06:34:49;71.46;55.50;80.16;;
57092;Laerm;42968;52.094;4.328;2023-08-31T06:37:14;71.71;53.53;78.50;;
57092;Laerm;42968;52.094;4.328;2023-08-31T06:39:39;70.83;53.00;78.20;;
57092;Laerm;42968;52.094;4.328;2023-08-31T06:42:06;69.99;56.11;79.53;;
57092;Laerm;42968;52.094;4.328;2023-08-31T06:44:31;70.18;55.15;81.48;;
57092;Laerm;42968;52.094;4.328;2023-08-31T06:46:56;69.54;55.89;80.29;;
57092;Laerm;42968;52.094;4.328;2023-08-31T06:49:22;70.75;59.74;81.06;;
57092;Laerm;42968;52.094;4.328;2023-08-31T06:51:48;70.44;48.75;80.39;;
57092;Laerm;42968;52.094;4.328;2023-08-31T06:54:14;70.44;51.30;77.69;;
57092;Laerm;42968;52.094;4.328;2023-08-31T06:56:39;70.43;56.48;83.01;;
57092;Laerm;42968;52.094;4.328;2023-08-31T06:59:04;70.92;51.17;79.78;;
57092;Laerm;42968;52.094;4.328;2023-08-31T07:01:30;69.73;57.05;80.04;;
57092;Laerm;42968;52.094;4.328;2023-08-31T07:03:57;69.41;54.10;77.09;;
57092;Laerm;42968;52.094;4.328;2023-08-31T07:06:23;70.46;52.80;77.95;;
57092;Laerm;42968;52.094;4.328;2023-08-31T07:08:48;70.64;49.65;83.40;;
57092;Laerm;42968;52.094;4.328;2023-08-31T07:11:14;70.21;54.31;79.84;;
57092;Laerm;42968;52.094;4.328;2023-08-31T07:13:40;70.20;54.27;78.13;;
57092;Laerm;42968;52.094;4.328;2023-08-31T07:16:05;70.37;53.19;78.36;;
57092;Laerm;42968;52.094;4.328;2023-08-31T07:18:30;70.92;47.77;82.03;;
57092;Laerm;42968;52.094;4.328;2023-08-31T07:20:56;69.11;50.99;77.33;;
57092;Laerm;42968;52.094;4.328;2023-08-31T07:23:21;69.69;50.43;80.14;;
57092;Laerm;42968;52.094;4.328;2023-08-31T07:25:47;69.48;52.57;80.67;;
57092;Laerm;42968;52.094;4.328;2023-08-31T07:28:12;69.95;51.13;78.80;;
57092;Laerm;42968;52.094;4.328;2023-08-31T07:30:37;68.41;50.70;81.65;;
57092;Laerm;42968;52.094;4.328;2023-08-31T07:33:03;70.55;52.88;85.55;;
57092;Laerm;42968;52.094;4.328;2023-08-31T07:35:29;68.77;52.95;81.92;;
57092;Laerm;42968;52.094;4.328;2023-08-31T07:37:55;69.96;49.77;85.45;;
57092;Laerm;42968;52.094;4.328;2023-08-31T07:40:20;70.29;52.62;83.03;;
57092;Laerm;42968;52.094;4.328;2023-08-31T07:42:45;69.13;51.52;78.23;;
57092;Laerm;42968;52.094;4.328;2023-08-31T07:45:10;70.68;56.11;78.55;;
57092;Laerm;42968;52.094;4.328;2023-08-31T07:47:36;68.03;50.52;76.76;;
57092;Laerm;42968;52.094;4.328;2023-08-31T07:50:01;69.53;53.58;81.53;;
57092;Laerm;42968;52.094;4.328;2023-08-31T07:52:27;68.91;55.54;79.49;;
57092;Laerm;42968;52.094;4.328;2023-08-31T07:54:52;68.38;55.49;77.19;;
57092;Laerm;42968;52.094;4.328;2023-08-31T07:57:18;68.97;52.09;77.53;;
57092;Laerm;42968;52.094;4.328;2023-08-31T07:59:44;68.25;47.72;78.35;;
57092;Laerm;42968;52.094;4.328;2023-08-31T08:02:09;67.28;49.41;76.81;;
57092;Laerm;42968;52.094;4.328;2023-08-31T08:04:34;70.33;57.04;83.43;;
57092;Laerm;42968;52.094;4.328;2023-08-31T08:07:00;68.52;49.10;78.99;;
57092;Laerm;42968;52.094;4.328;2023-08-31T08:09:25;68.87;51.19;76.26;;
57092;Laerm;42968;52.094;4.328;2023-08-31T08:11:50;69.26;51.27;79.50;;
57092;Laerm;42968;52.094;4.328;2023-08-31T08:14:16;71.69;49.40;87.75;;
57092;Laerm;42968;52.094;4.328;2023-08-31T08:16:42;68.70;52.56;76.67;;
57092;Laerm;42968;52.094;4.328;2023-08-31T08:19:07;69.35;51.69;79.83;;
57092;Laerm;42968;52.094;4.328;2023-08-31T08:21:33;67.38;47.28;78.09;;
57092;Laerm;42968;52.094;4.328;2023-08-31T08:23:58;68.51;49.06;81.56;;
57092;Laerm;42968;52.094;4.328;2023-08-31T08:26:23;69.02;53.08;84.86;;
57092;Laerm;42968;52.094;4.328;2023-08-31T08:28:48;68.84;51.35;83.36;;
57092;Laerm;42968;52.094;4.328;2023-08-31T08:31:14;67.47;51.17;77.19;;
57092;Laerm;42968;52.094;4.328;2023-08-31T08:33:39;69.03;47.30;80.67;;
57092;Laerm;42968;52.094;4.328;2023-08-31T08:36:05;67.94;53.79;78.70;;
57092;Laerm;42968;52.094;4.328;2023-08-31T08:38:30;69.30;55.67;82.17;;
57092;Laerm;42968;52.094;4.328;2023-08-31T08:40:55;69.55;51.08;84.20;;
57092;Laerm;42968;52.094;4.328;2023-08-31T08:43:26;69.22;46.87;78.18;;
57092;Laerm;42968;52.094;4.328;2023-08-31T08:45:53;69.03;49.59;78.82;;
57092;Laerm;42968;52.094;4.328;2023-08-31T08:48:19;70.48;50.40;81.18;;
57092;Laerm;42968;52.094;4.328;2023-08-31T08:50:45;68.45;49.92;79.53;;
57092;Laerm;42968;52.094;4.328;2023-08-31T08:53:10;69.38;49.93;83.97;;
57092;Laerm;42968;52.094;4.328;2023-08-31T08:55:36;68.92;53.64;81.31;;
57092;Laerm;42968;52.094;4.328;2023-08-31T08:58:01;70.42;51.74;79.19;;
57092;Laerm;42968;52.094;4.328;2023-08-31T09:00:28;68.56;49.10;80.99;;
57092;Laerm;42968;52.094;4.328;2023-08-31T09:02:54;69.16;54.40;82.23;;
57092;Laerm;42968;52.094;4.328;2023-08-31T09:05:19;69.28;54.08;82.09;;
57092;Laerm;42968;52.094;4.328;2023-08-31T09:08:06;67.86;48.92;75.60;;
57092;Laerm;42968;52.094;4.328;2023-08-31T09:10:35;67.99;49.41;76.46;;
57092;Laerm;42968;52.094;4.328;2023-08-31T09:13:00;67.50;50.57;77.27;;
57092;Laerm;42968;52.094;4.328;2023-08-31T09:15:26;68.29;50.45;76.02;;
57092;Laerm;42968;52.094;4.328;2023-08-31T09:18:00;69.84;56.10;85.00;;
57092;Laerm;42968;52.094;4.328;2023-08-31T09:20:25;66.82;52.08;74.47;;
57092;Laerm;42968;52.094;4.328;2023-08-31T09:22:50;69.14;52.01;77.64;;
57092;Laerm;42968;52.094;4.328;2023-08-31T09:25:17;67.26;51.44;75.64;;
57092;Laerm;42968;52.094;4.328;2023-08-31T09:27:45;69.20;52.56;76.49;;
57092;Laerm;42968;52.094;4.328;2023-08-31T09:30:10;68.20;51.67;79.52;;
57092;Laerm;42968;52.094;4.328;2023-08-31T09:32:35;68.68;50.00;79.27;;
57092;Laerm;42968;52.094;4.328;2023-08-31T09:35:02;69.14;49.34;77.22;;
57092;Laerm;42968;52.094;4.328;2023-08-31T09:37:28;70.81;50.12;85.34;;
57092;Laerm;42968;52.094;4.328;2023-08-31T09:39:54;68.07;49.51;77.20;;
57092;Laerm;42968;52.094;4.328;2023-08-31T09:42:19;68.56;54.03;75.63;;
57092;Laerm;42968;52.094;4.328;2023-08-31T09:44:45;71.54;55.02;80.76;;
57092;Laerm;42968;52.094;4.328;2023-08-31T09:47:11;68.72;49.38;77.48;;
57092;Laerm;42968;52.094;4.328;2023-08-31T09:49:38;67.88;50.54;77.16;;
57092;Laerm;42968;52.094;4.328;2023-08-31T09:52:04;69.09;49.90;82.97;;
57092;Laerm;42968;52.094;4.328;2023-08-31T09:54:31;67.39;49.52;77.24;;
57092;Laerm;42968;52.094;4.328;2023-08-31T09:56:57;67.89;53.04;75.80;;
57092;Laerm;42968;52.094;4.328;2023-08-31T09:59:25;70.31;51.18;86.82;;
57092;Laerm;42968;52.094;4.328;2023-08-31T10:01:50;67.70;48.02;79.79;;
57092;Laerm;42968;52.094;4.328;2023-08-31T10:04:15;67.53;49.83;76.68;;
57092;Laerm;42968;52.094;4.328;2023-08-31T10:06:41;67.84;50.70;79.98;;
57092;Laerm;42968;52.094;4.328;2023-08-31T10:09:07;67.80;52.00;76.47;;
57092;Laerm;42968;52.094;4.328;2023-08-31T10:11:37;69.20;49.24;78.08;;
57092;Laerm;42968;52.094;4.328;2023-08-31T10:14:03;68.18;48.85;87.36;;
57092;Laerm;42968;52.094;4.328;2023-08-31T10:16:28;69.20;51.31;79.17;;
57092;Laerm;42968;52.094;4.328;2023-08-31T10:18:54;67.84;49.82;75.36;;
57092;Laerm;42968;52.094;4.328;2023-08-31T10:21:20;69.41;54.71;81.19;;
57092;Laerm;42968;52.094;4.328;2023-08-31T10:23:48;67.66;46.62;79.09;;
57092;Laerm;42968;52.094;4.328;2023-08-31T10:26:24;69.35;56.10;80.29;;
57092;Laerm;42968;52.094;4.328;2023-08-31T10:28:50;68.13;48.52;78.54;;
57092;Laerm;42968;52.094;4.328;2023-08-31T10:31:16;69.50;49.97;77.14;;
57092;Laerm;42968;52.094;4.328;2023-08-31T10:36:19;68.22;51.06;79.49;;
57092;Laerm;42968;52.094;4.328;2023-08-31T10:38:45;66.59;48.25;76.11;;
57092;Laerm;42968;52.094;4.328;2023-08-31T10:43:42;68.52;47.91;77.28;;
57092;Laerm;42968;52.094;4.328;2023-08-31T10:46:18;68.04;52.81;77.14;;
57092;Laerm;42968;52.094;4.328;2023-08-31T10:48:54;80.92;52.34;99.02;;
57092;Laerm;42968;52.094;4.328;2023-08-31T10:51:23;70.64;55.42;83.60;;
57092;Laerm;42968;52.094;4.328;2023-08-31T10:53:49;69.15;53.92;77.75;;
57092;Laerm;42968;52.094;4.328;2023-08-31T10:56:20;69.34;52.38;83.41;;
57092;Laerm;42968;52.094;4.328;2023-08-31T10:58:58;70.63;50.85;93.85;;
57092;Laerm;42968;52.094;4.328;2023-08-31T11:04:10;69.18;49.29;78.61;;
57092;Laerm;42968;52.094;4.328;2023-08-31T11:06:36;69.87;49.18;80.64;;
57092;Laerm;42968;52.094;4.328;2023-08-31T11:09:01;67.78;50.65;77.22;;
57092;Laerm;42968;52.094;4.328;2023-08-31T11:11:29;69.94;57.33;79.47;;
57092;Laerm;42968;52.094;4.328;2023-08-31T11:14:02;69.48;46.78;82.44;;
57092;Laerm;42968;52.094;4.328;2023-08-31T11:16:29;71.18;49.24;83.25;;
57092;Laerm;42968;52.094;4.328;2023-08-31T11:18:54;68.37;48.64;80.10;;
57092;Laerm;42968;52.094;4.328;2023-08-31T11:21:20;69.32;49.75;77.30;;
57092;Laerm;42968;52.094;4.328;2023-08-31T11:23:46;70.38;48.28;88.65;;
57092;Laerm;42968;52.094;4.328;2023-08-31T11:26:12;68.19;55.59;78.29;;
57092;Laerm;42968;52.094;4.328;2023-08-31T11:28:37;71.00;51.95;85.06;;
57092;Laerm;42968;52.094;4.328;2023-08-31T11:31:02;81.34;49.85;102.91;;
57092;Laerm;42968;52.094;4.328;2023-08-31T11:33:31;69.59;52.56;83.92;;
57092;Laerm;42968;52.094;4.328;2023-08-31T11:35:58;69.13;50.80;81.13;;
57092;Laerm;42968;52.094;4.328;2023-08-31T11:38:23;69.53;51.12;81.06;;
57092;Laerm;42968;52.094;4.328;2023-08-31T11:40:49;68.75;51.80;77.76;;
57092;Laerm;42968;52.094;4.328;2023-08-31T11:43:15;68.68;49.72;79.88;;
57092;Laerm;42968;52.094;4.328;2023-08-31T11:45:40;68.13;51.10;78.00;;
57092;Laerm;42968;52.094;4.328;2023-08-31T11:48:06;69.29;49.89;80.63;;
57092;Laerm;42968;52.094;4.328;2023-08-31T11:50:31;80.95;47.10;100.65;;
57092;Laerm;42968;52.094;4.328;2023-08-31T11:52:57;70.13;54.06;84.54;;
57092;Laerm;42968;52.094;4.328;2023-08-31T11:55:23;67.82;54.86;74.52;;
57092;Laerm;42968;52.094;4.328;2023-08-31T11:57:48;69.52;53.36;77.10;;
57092;Laerm;42968;52.094;4.328;2023-08-31T12:00:16;69.92;46.76;84.95;;
57092;Laerm;42968;52.094;4.328;2023-08-31T12:02:41;68.57;47.46;77.98;;
57092;Laerm;42968;52.094;4.328;2023-08-31T12:05:06;70.43;49.83;80.73;;
57092;Laerm;42968;52.094;4.328;2023-08-31T12:07:32;73.01;49.24;89.79;;
57092;Laerm;42968;52.094;4.328;2023-08-31T12:10:03;68.34;50.40;76.54;;
57092;Laerm;42968;52.094;4.328;2023-08-31T12:12:29;71.97;48.99;98.33;;
57092;Laerm;42968;52.094;4.328;2023-08-31T12:14:54;69.24;47.57;83.13;;
57092;Laerm;42968;52.094;4.328;2023-08-31T12:17:20;69.38;54.31;81.10;;
57092;Laerm;42968;52.094;4.328;2023-08-31T12:19:45;69.25;52.31;77.75;;
57092;Laerm;42968;52.094;4.328;2023-08-31T12:22:11;68.24;52.15;75.92;;
57092;Laerm;42968;52.094;4.328;2023-08-31T12:24:39;81.66;50.34;107.22;;
57092;Laerm;42968;52.094;4.328;2023-08-31T12:27:08;68.26;51.34;75.80;;
57092;Laerm;42968;52.094;4.328;2023-08-31T12:29:33;68.84;50.93;76.91;;
57092;Laerm;42968;52.094;4.328;2023-08-31T12:31:59;70.48;54.12;79.93;;
57092;Laerm;42968;52.094;4.328;2023-08-31T12:34:24;69.39;52.66;79.48;;
57092;Laerm;42968;52.094;4.328;2023-08-31T12:36:51;78.01;52.24;102.11;;
57092;Laerm;42968;52.094;4.328;2023-08-31T12:39:17;68.88;53.15;79.53;;
57092;Laerm;42968;52.094;4.328;2023-08-31T12:41:42;69.41;54.52;79.83;;
57092;Laerm;42968;52.094;4.328;2023-08-31T12:44:08;69.40;54.15;81.82;;
57092;Laerm;42968;52.094;4.328;2023-08-31T12:46:33;68.85;53.30;76.18;;
57092;Laerm;42968;52.094;4.328;2023-08-31T12:49:01;70.58;47.98;87.68;;
57092;Laerm;42968;52.094;4.328;2023-08-31T12:51:28;68.40;47.77;78.54;;
57092;Laerm;42968;52.094;4.328;2023-08-31T12:53:54;68.90;54.04;77.69;;
57092;Laerm;42968;52.094;4.328;2023-08-31T12:56:19;67.76;47.77;77.15;;
57092;Laerm;42968;52.094;4.328;2023-08-31T12:58:48;69.95;50.05;82.39;;
57092;Laerm;42968;52.094;4.328;2023-08-31T13:01:13;68.72;50.76;78.12;;
57092;Laerm;42968;52.094;4.328;2023-08-31T13:03:38;70.43;48.43;78.86;;
57092;Laerm;42968;52.094;4.328;2023-08-31T13:06:04;69.63;47.81;78.46;;
57092;Laerm;42968;52.094;4.328;2023-08-31T13:08:29;68.22;55.08;75.75;;
57092;Laerm;42968;52.094;4.328;2023-08-31T13:10:54;68.64;53.46;77.05;;
57092;Laerm;42968;52.094;4.328;2023-08-31T13:13:20;69.95;53.38;80.67;;
57092;Laerm;42968;52.094;4.328;2023-08-31T13:15:48;69.37;54.11;76.81;;
57092;Laerm;42968;52.094;4.328;2023-08-31T13:18:14;68.94;55.09;78.44;;
57092;Laerm;42968;52.094;4.328;2023-08-31T13:20:39;68.43;50.59;78.10;;
57092;Laerm;42968;52.094;4.328;2023-08-31T13:23:06;74.05;57.50;92.81;;
57092;Laerm;42968;52.094;4.328;2023-08-31T13:25:32;69.13;49.41;77.62;;
57092;Laerm;42968;52.094;4.328;2023-08-31T13:27:57;68.81;54.06;77.63;;
57092;Laerm;42968;52.094;4.328;2023-08-31T13:30:22;69.98;48.87;80.51;;
57092;Laerm;42968;52.094;4.328;2023-08-31T13:32:48;69.88;51.30;79.77;;
57092;Laerm;42968;52.094;4.328;2023-08-31T13:35:13;69.67;57.46;77.87;;
57092;Laerm;42968;52.094;4.328;2023-08-31T13:37:39;69.63;49.05;79.21;;
57092;Laerm;42968;52.094;4.328;2023-08-31T13:40:04;69.02;51.22;76.46;;
57092;Laerm;42968;52.094;4.328;2023-08-31T13:42:35;69.58;52.17;79.90;;
57092;Laerm;42968;52.094;4.328;2023-08-31T13:45:07;69.96;54.98;77.09;;
57092;Laerm;42968;52.094;4.328;2023-08-31T13:47:33;69.46;46.18;81.02;;
57092;Laerm;42968;52.094;4.328;2023-08-31T13:49:58;68.22;51.30;79.77;;
57092;Laerm;42968;52.094;4.328;2023-08-31T13:52:23;67.41;50.78;76.46;;
57092;Laerm;42968;52.094;4.328;2023-08-31T13:54:49;70.87;49.74;85.15;;